DRW weather

Darwin International Airport
Darwin, Northern Territory, Australia

Public forecast

Using degrees Celsius for public forecast. Weather courtesy of forecast.io.

METAR (pilot weather report)

Retrieved 2019/03/23 10:00 UTC (13 minutes ago):

YPDN 231000Z 28013KT 9999 -RA NSC 26/23 Q1005 FM1100 27014KT 9999 FEW020 TEMPO 1000/1100 VRB20G35KT 1000 TSRA BKN010 SCT020CB

TAF (pilot weather forecast)

Retrieved 2019/03/23 06:00 UTC (4 hours ago):

TAF YPDN 230528Z 2306/2412 27014KT 9999 SCT020 FM240000 27016KT 9999 SCT025 PROB30 TEMPO 2306/2318 VRB25G40KT 1000 TSRA BKN010 SCT020CB PROB30 TEMPO 2403/2412 VRB25G40KT 1000 TSRA BKN010 SCT020CB